sensor_id;sensor_type;location;lat;lon;timestamp;P1;durP1;ratioP1;P2;durP2;ratioP2
16288;SDS011;26089;43.538;5.250;2023-04-06T00:00:33;2.90;;;2.63;;
16288;SDS011;26089;43.538;5.250;2023-04-06T00:03:00;3.40;;;3.10;;
16288;SDS011;26089;43.538;5.250;2023-04-06T00:05:27;3.53;;;2.97;;
16288;SDS011;26089;43.538;5.250;2023-04-06T00:07:56;4.07;;;2.67;;
16288;SDS011;26089;43.538;5.250;2023-04-06T00:10:23;3.03;;;2.80;;
16288;SDS011;26089;43.538;5.250;2023-04-06T00:12:51;2.40;;;2.20;;
16288;SDS011;26089;43.538;5.250;2023-04-06T00:15:18;4.03;;;3.00;;
16288;SDS011;26089;43.538;5.250;2023-04-06T00:17:47;3.20;;;2.90;;
16288;SDS011;26089;43.538;5.250;2023-04-06T00:20:14;2.80;;;2.60;;
16288;SDS011;26089;43.538;5.250;2023-04-06T00:22:41;3.37;;;3.03;;
16288;SDS011;26089;43.538;5.250;2023-04-06T00:25:09;2.90;;;2.70;;
16288;SDS011;26089;43.538;5.250;2023-04-06T00:27:37;3.50;;;2.90;;
16288;SDS011;26089;43.538;5.250;2023-04-06T00:30:05;3.43;;;2.93;;
16288;SDS011;26089;43.538;5.250;2023-04-06T00:32:33;3.30;;;2.60;;
16288;SDS011;26089;43.538;5.250;2023-04-06T00:35:03;3.20;;;2.90;;
16288;SDS011;26089;43.538;5.250;2023-04-06T00:37:31;3.00;;;2.63;;
16288;SDS011;26089;43.538;5.250;2023-04-06T00:39:58;2.87;;;2.70;;
16288;SDS011;26089;43.538;5.250;2023-04-06T00:42:25;3.27;;;3.00;;
16288;SDS011;26089;43.538;5.250;2023-04-06T00:44:52;3.20;;;2.87;;
16288;SDS011;26089;43.538;5.250;2023-04-06T00:47:20;2.73;;;2.43;;
16288;SDS011;26089;43.538;5.250;2023-04-06T00:49:47;2.97;;;2.67;;
16288;SDS011;26089;43.538;5.250;2023-04-06T00:52:16;3.43;;;3.13;;
16288;SDS011;26089;43.538;5.250;2023-04-06T00:54:43;4.03;;;2.90;;
16288;SDS011;26089;43.538;5.250;2023-04-06T00:57:10;2.37;;;2.23;;
16288;SDS011;26089;43.538;5.250;2023-04-06T00:59:38;3.47;;;2.63;;
16288;SDS011;26089;43.538;5.250;2023-04-06T01:02:05;3.50;;;2.20;;
16288;SDS011;26089;43.538;5.250;2023-04-06T01:04:33;3.07;;;2.70;;
16288;SDS011;26089;43.538;5.250;2023-04-06T01:07:00;3.47;;;2.80;;
16288;SDS011;26089;43.538;5.250;2023-04-06T01:09:29;2.70;;;2.50;;
16288;SDS011;26089;43.538;5.250;2023-04-06T01:11:56;3.17;;;2.30;;
16288;SDS011;26089;43.538;5.250;2023-04-06T01:14:24;2.60;;;2.40;;
16288;SDS011;26089;43.538;5.250;2023-04-06T01:16:51;3.03;;;2.73;;
16288;SDS011;26089;43.538;5.250;2023-04-06T01:19:19;3.17;;;2.87;;
16288;SDS011;26089;43.538;5.250;2023-04-06T01:21:46;2.93;;;2.73;;
16288;SDS011;26089;43.538;5.250;2023-04-06T01:24:15;2.73;;;2.53;;
16288;SDS011;26089;43.538;5.250;2023-04-06T01:26:43;2.80;;;2.60;;
16288;SDS011;26089;43.538;5.250;2023-04-06T01:29:11;2.43;;;2.23;;
16288;SDS011;26089;43.538;5.250;2023-04-06T01:31:38;2.50;;;2.30;;
16288;SDS011;26089;43.538;5.250;2023-04-06T01:34:05;2.30;;;2.10;;
16288;SDS011;26089;43.538;5.250;2023-04-06T01:36:33;3.07;;;2.77;;
16288;SDS011;26089;43.538;5.250;2023-04-06T01:39:00;2.77;;;2.57;;
16288;SDS011;26089;43.538;5.250;2023-04-06T01:41:28;3.10;;;2.47;;
16288;SDS011;26089;43.538;5.250;2023-04-06T01:43:55;2.80;;;2.60;;
16288;SDS011;26089;43.538;5.250;2023-04-06T01:46:23;3.27;;;2.63;;
16288;SDS011;26089;43.538;5.250;2023-04-06T01:48:50;3.00;;;2.70;;
16288;SDS011;26089;43.538;5.250;2023-04-06T01:51:17;3.20;;;2.87;;
16288;SDS011;26089;43.538;5.250;2023-04-06T01:53:44;3.27;;;2.97;;
16288;SDS011;26089;43.538;5.250;2023-04-06T01:56:11;3.40;;;2.90;;
16288;SDS011;26089;43.538;5.250;2023-04-06T01:58:39;4.60;;;2.80;;
16288;SDS011;26089;43.538;5.250;2023-04-06T02:01:06;2.60;;;2.40;;
16288;SDS011;26089;43.538;5.250;2023-04-06T02:03:33;2.93;;;2.67;;
16288;SDS011;26089;43.538;5.250;2023-04-06T02:06:01;4.07;;;2.70;;
16288;SDS011;26089;43.538;5.250;2023-04-06T02:08:28;2.60;;;2.40;;
16288;SDS011;26089;43.538;5.250;2023-04-06T02:10:55;2.30;;;2.17;;
16288;SDS011;26089;43.538;5.250;2023-04-06T02:13:22;2.73;;;2.53;;
16288;SDS011;26089;43.538;5.250;2023-04-06T02:15:51;3.57;;;2.30;;
16288;SDS011;26089;43.538;5.250;2023-04-06T02:18:18;2.27;;;2.10;;
16288;SDS011;26089;43.538;5.250;2023-04-06T02:20:45;4.43;;;2.93;;
16288;SDS011;26089;43.538;5.250;2023-04-06T02:23:12;3.83;;;2.80;;
16288;SDS011;26089;43.538;5.250;2023-04-06T02:25:39;4.30;;;2.87;;
16288;SDS011;26089;43.538;5.250;2023-04-06T02:28:06;2.90;;;2.70;;
16288;SDS011;26089;43.538;5.250;2023-04-06T02:30:33;3.33;;;2.83;;
16288;SDS011;26089;43.538;5.250;2023-04-06T02:33:02;2.43;;;2.27;;
16288;SDS011;26089;43.538;5.250;2023-04-06T02:35:29;2.77;;;2.57;;
16288;SDS011;26089;43.538;5.250;2023-04-06T02:37:57;4.07;;;2.73;;
16288;SDS011;26089;43.538;5.250;2023-04-06T02:40:24;2.93;;;2.73;;
16288;SDS011;26089;43.538;5.250;2023-04-06T02:42:51;3.23;;;2.93;;
16288;SDS011;26089;43.538;5.250;2023-04-06T02:45:18;3.27;;;2.43;;
16288;SDS011;26089;43.538;5.250;2023-04-06T02:47:45;3.37;;;2.60;;
16288;SDS011;26089;43.538;5.250;2023-04-06T02:50:14;2.93;;;2.70;;
16288;SDS011;26089;43.538;5.250;2023-04-06T02:52:41;2.50;;;2.30;;
16288;SDS011;26089;43.538;5.250;2023-04-06T02:55:08;2.90;;;2.57;;
16288;SDS011;26089;43.538;5.250;2023-04-06T02:57:35;2.50;;;2.30;;
16288;SDS011;26089;43.538;5.250;2023-04-06T03:00:03;3.30;;;2.60;;
16288;SDS011;26089;43.538;5.250;2023-04-06T03:02:31;3.60;;;3.23;;
16288;SDS011;26089;43.538;5.250;2023-04-06T03:04:58;4.23;;;2.90;;
16288;SDS011;26089;43.538;5.250;2023-04-06T03:07:26;3.93;;;2.90;;
16288;SDS011;26089;43.538;5.250;2023-04-06T03:09:53;3.10;;;2.90;;
16288;SDS011;26089;43.538;5.250;2023-04-06T03:12:20;3.10;;;2.90;;
16288;SDS011;26089;43.538;5.250;2023-04-06T03:14:47;2.90;;;2.70;;
16288;SDS011;26089;43.538;5.250;2023-04-06T03:17:14;3.80;;;2.90;;
16288;SDS011;26089;43.538;5.250;2023-04-06T03:19:41;3.20;;;2.90;;
16288;SDS011;26089;43.538;5.250;2023-04-06T03:22:08;4.00;;;3.00;;
16288;SDS011;26089;43.538;5.250;2023-04-06T03:24:37;2.93;;;2.73;;
16288;SDS011;26089;43.538;5.250;2023-04-06T03:27:04;3.03;;;2.73;;
16288;SDS011;26089;43.538;5.250;2023-04-06T03:29:31;3.17;;;2.87;;
16288;SDS011;26089;43.538;5.250;2023-04-06T03:31:58;3.80;;;2.70;;
16288;SDS011;26089;43.538;5.250;2023-04-06T03:34:25;3.20;;;2.90;;
16288;SDS011;26089;43.538;5.250;2023-04-06T03:36:52;2.67;;;2.47;;
16288;SDS011;26089;43.538;5.250;2023-04-06T03:39:19;3.60;;;3.00;;
16288;SDS011;26089;43.538;5.250;2023-04-06T03:41:48;3.20;;;3.00;;
16288;SDS011;26089;43.538;5.250;2023-04-06T03:44:15;3.93;;;3.20;;
16288;SDS011;26089;43.538;5.250;2023-04-06T03:46:42;3.20;;;2.40;;
16288;SDS011;26089;43.538;5.250;2023-04-06T03:49:09;2.80;;;2.47;;
16288;SDS011;26089;43.538;5.250;2023-04-06T03:51:36;3.07;;;2.50;;
16288;SDS011;26089;43.538;5.250;2023-04-06T03:54:03;4.07;;;2.73;;
16288;SDS011;26089;43.538;5.250;2023-04-06T03:56:31;3.23;;;2.93;;
16288;SDS011;26089;43.538;5.250;2023-04-06T03:59:00;2.70;;;2.50;;
16288;SDS011;26089;43.538;5.250;2023-04-06T04:01:27;3.53;;;3.00;;
16288;SDS011;26089;43.538;5.250;2023-04-06T04:03:54;2.83;;;2.63;;
16288;SDS011;26089;43.538;5.250;2023-04-06T04:06:21;3.73;;;2.90;;
16288;SDS011;26089;43.538;5.250;2023-04-06T04:08:48;2.80;;;2.60;;
16288;SDS011;26089;43.538;5.250;2023-04-06T04:11:15;3.07;;;2.80;;
16288;SDS011;26089;43.538;5.250;2023-04-06T04:13:42;2.93;;;2.70;;
16288;SDS011;26089;43.538;5.250;2023-04-06T04:16:11;2.73;;;2.53;;
16288;SDS011;26089;43.538;5.250;2023-04-06T04:18:38;4.97;;;3.00;;
16288;SDS011;26089;43.538;5.250;2023-04-06T04:21:05;2.57;;;2.37;;
16288;SDS011;26089;43.538;5.250;2023-04-06T04:23:32;4.23;;;3.10;;
16288;SDS011;26089;43.538;5.250;2023-04-06T04:25:59;3.47;;;3.17;;
16288;SDS011;26089;43.538;5.250;2023-04-06T04:28:26;4.67;;;2.97;;
16288;SDS011;26089;43.538;5.250;2023-04-06T04:30:53;4.47;;;3.03;;
16288;SDS011;26089;43.538;5.250;2023-04-06T04:33:22;3.30;;;3.00;;
16288;SDS011;26089;43.538;5.250;2023-04-06T04:35:49;5.43;;;3.30;;
16288;SDS011;26089;43.538;5.250;2023-04-06T04:38:16;4.07;;;3.70;;
16288;SDS011;26089;43.538;5.250;2023-04-06T04:40:43;5.23;;;3.07;;
16288;SDS011;26089;43.538;5.250;2023-04-06T04:43:10;3.70;;;3.40;;
16288;SDS011;26089;43.538;5.250;2023-04-06T04:45:37;3.83;;;3.40;;
16288;SDS011;26089;43.538;5.250;2023-04-06T04:48:04;5.57;;;3.20;;
16288;SDS011;26089;43.538;5.250;2023-04-06T04:50:34;3.20;;;3.00;;
16288;SDS011;26089;43.538;5.250;2023-04-06T04:53:01;4.80;;;3.30;;
16288;SDS011;26089;43.538;5.250;2023-04-06T04:55:30;3.67;;;3.20;;
16288;SDS011;26089;43.538;5.250;2023-04-06T04:57:57;3.37;;;3.07;;
16288;SDS011;26089;43.538;5.250;2023-04-06T05:00:24;3.97;;;3.57;;
16288;SDS011;26089;43.538;5.250;2023-04-06T05:02:51;3.33;;;2.93;;
16288;SDS011;26089;43.538;5.250;2023-04-06T05:05:18;3.53;;;3.03;;
16288;SDS011;26089;43.538;5.250;2023-04-06T05:07:47;4.07;;;3.43;;
16288;SDS011;26089;43.538;5.250;2023-04-06T05:10:14;3.57;;;3.27;;
16288;SDS011;26089;43.538;5.250;2023-04-06T05:12:41;5.67;;;3.73;;
16288;SDS011;26089;43.538;5.250;2023-04-06T05:15:09;5.50;;;3.80;;
16288;SDS011;26089;43.538;5.250;2023-04-06T05:17:36;4.10;;;3.70;;
16288;SDS011;26089;43.538;5.250;2023-04-06T05:20:04;4.23;;;3.40;;
16288;SDS011;26089;43.538;5.250;2023-04-06T05:22:32;3.87;;;3.53;;
16288;SDS011;26089;43.538;5.250;2023-04-06T05:25:00;3.73;;;3.43;;
16288;SDS011;26089;43.538;5.250;2023-04-06T05:27:28;3.63;;;3.30;;
16288;SDS011;26089;43.538;5.250;2023-04-06T05:29:55;6.47;;;3.63;;
16288;SDS011;26089;43.538;5.250;2023-04-06T05:32:22;3.33;;;2.97;;
16288;SDS011;26089;43.538;5.250;2023-04-06T05:34:49;3.83;;;3.53;;
16288;SDS011;26089;43.538;5.250;2023-04-06T05:37:17;3.90;;;3.50;;
16288;SDS011;26089;43.538;5.250;2023-04-06T05:39:44;5.17;;;3.70;;
16288;SDS011;26089;43.538;5.250;2023-04-06T05:42:12;4.20;;;3.50;;
16288;SDS011;26089;43.538;5.250;2023-04-06T05:44:40;3.37;;;3.17;;
16288;SDS011;26089;43.538;5.250;2023-04-06T05:47:07;5.30;;;3.70;;
16288;SDS011;26089;43.538;5.250;2023-04-06T05:49:34;3.87;;;3.57;;
16288;SDS011;26089;43.538;5.250;2023-04-06T05:52:01;4.23;;;3.43;;
16288;SDS011;26089;43.538;5.250;2023-04-06T05:54:29;4.50;;;3.80;;
16288;SDS011;26089;43.538;5.250;2023-04-06T05:56:56;4.57;;;3.63;;
16288;SDS011;26089;43.538;5.250;2023-04-06T05:59:24;6.57;;;4.03;;
16288;SDS011;26089;43.538;5.250;2023-04-06T06:01:51;3.57;;;3.27;;
16288;SDS011;26089;43.538;5.250;2023-04-06T06:04:18;4.07;;;3.40;;
16288;SDS011;26089;43.538;5.250;2023-04-06T06:06:45;4.90;;;4.17;;
16288;SDS011;26089;43.538;5.250;2023-04-06T06:09:12;5.60;;;3.97;;
16288;SDS011;26089;43.538;5.250;2023-04-06T06:11:40;4.30;;;3.90;;
16288;SDS011;26089;43.538;5.250;2023-04-06T06:14:07;4.60;;;3.63;;
16288;SDS011;26089;43.538;5.250;2023-04-06T06:16:35;3.83;;;3.43;;
16288;SDS011;26089;43.538;5.250;2023-04-06T06:19:02;3.93;;;3.30;;
16288;SDS011;26089;43.538;5.250;2023-04-06T06:21:29;4.50;;;3.77;;
16288;SDS011;26089;43.538;5.250;2023-04-06T06:23:56;5.50;;;3.90;;
16288;SDS011;26089;43.538;5.250;2023-04-06T06:26:23;4.63;;;3.73;;
16288;SDS011;26089;43.538;5.250;2023-04-06T06:28:51;4.80;;;3.30;;
16288;SDS011;26089;43.538;5.250;2023-04-06T06:31:18;5.20;;;3.40;;
16288;SDS011;26089;43.538;5.250;2023-04-06T06:33:47;3.63;;;3.33;;
16288;SDS011;26089;43.538;5.250;2023-04-06T06:36:15;3.60;;;3.30;;
16288;SDS011;26089;43.538;5.250;2023-04-06T06:38:43;5.97;;;3.63;;
16288;SDS011;26089;43.538;5.250;2023-04-06T06:41:10;7.57;;;3.93;;
16288;SDS011;26089;43.538;5.250;2023-04-06T06:43:37;5.77;;;3.60;;
16288;SDS011;26089;43.538;5.250;2023-04-06T06:46:04;4.03;;;3.63;;
16288;SDS011;26089;43.538;5.250;2023-04-06T06:48:31;5.10;;;3.70;;
16288;SDS011;26089;43.538;5.250;2023-04-06T06:51:00;4.30;;;2.90;;
16288;SDS011;26089;43.538;5.250;2023-04-06T06:53:27;3.70;;;3.00;;
16288;SDS011;26089;43.538;5.250;2023-04-06T06:55:54;3.17;;;2.87;;
16288;SDS011;26089;43.538;5.250;2023-04-06T06:58:21;3.70;;;3.40;;
16288;SDS011;26089;43.538;5.250;2023-04-06T07:00:48;5.07;;;3.27;;
16288;SDS011;26089;43.538;5.250;2023-04-06T07:03:15;6.00;;;3.20;;
16288;SDS011;26089;43.538;5.250;2023-04-06T07:05:45;3.60;;;3.30;;
16288;SDS011;26089;43.538;5.250;2023-04-06T07:08:16;8.10;;;3.67;;
16288;SDS011;26089;43.538;5.250;2023-04-06T07:10:43;3.30;;;3.00;;
16288;SDS011;26089;43.538;5.250;2023-04-06T07:13:10;15.83;;;4.27;;
16288;SDS011;26089;43.538;5.250;2023-04-06T07:15:39;6.87;;;3.10;;
16288;SDS011;26089;43.538;5.250;2023-04-06T07:18:06;4.40;;;3.53;;
16288;SDS011;26089;43.538;5.250;2023-04-06T07:20:33;3.20;;;2.87;;
16288;SDS011;26089;43.538;5.250;2023-04-06T07:23:00;7.73;;;3.33;;
16288;SDS011;26089;43.538;5.250;2023-04-06T07:25:29;3.30;;;3.00;;
16288;SDS011;26089;43.538;5.250;2023-04-06T07:27:56;6.57;;;3.03;;
16288;SDS011;26089;43.538;5.250;2023-04-06T07:30:23;7.17;;;3.50;;
16288;SDS011;26089;43.538;5.250;2023-04-06T07:32:51;3.43;;;2.90;;
16288;SDS011;26089;43.538;5.250;2023-04-06T07:35:20;6.47;;;3.10;;
16288;SDS011;26089;43.538;5.250;2023-04-06T07:37:47;4.93;;;2.73;;
16288;SDS011;26089;43.538;5.250;2023-04-06T07:40:15;7.77;;;3.43;;
16288;SDS011;26089;43.538;5.250;2023-04-06T07:42:43;6.17;;;3.63;;
16288;SDS011;26089;43.538;5.250;2023-04-06T07:45:10;3.17;;;2.73;;
16288;SDS011;26089;43.538;5.250;2023-04-06T07:47:38;9.50;;;3.33;;
16288;SDS011;26089;43.538;5.250;2023-04-06T07:50:05;7.43;;;3.10;;
16288;SDS011;26089;43.538;5.250;2023-04-06T07:52:33;3.43;;;2.80;;
16288;SDS011;26089;43.538;5.250;2023-04-06T07:55:00;4.23;;;2.83;;
16288;SDS011;26089;43.538;5.250;2023-04-06T07:57:27;5.40;;;3.23;;
16288;SDS011;26089;43.538;5.250;2023-04-06T07:59:55;2.87;;;2.63;;
16288;SDS011;26089;43.538;5.250;2023-04-06T08:02:22;4.30;;;3.27;;
16288;SDS011;26089;43.538;5.250;2023-04-06T08:04:49;2.70;;;2.50;;
16288;SDS011;26089;43.538;5.250;2023-04-06T08:07:16;4.57;;;2.93;;
16288;SDS011;26089;43.538;5.250;2023-04-06T08:09:43;3.97;;;2.77;;
16288;SDS011;26089;43.538;5.250;2023-04-06T08:12:10;5.30;;;3.53;;
16288;SDS011;26089;43.538;5.250;2023-04-06T08:14:37;3.23;;;3.00;;
16288;SDS011;26089;43.538;5.250;2023-04-06T08:17:06;3.40;;;3.10;;
16288;SDS011;26089;43.538;5.250;2023-04-06T08:19:33;4.67;;;2.87;;
16288;SDS011;26089;43.538;5.250;2023-04-06T08:22:00;2.80;;;2.53;;
16288;SDS011;26089;43.538;5.250;2023-04-06T08:24:27;2.93;;;2.60;;
16288;SDS011;26089;43.538;5.250;2023-04-06T08:26:55;4.23;;;2.80;;
16288;SDS011;26089;43.538;5.250;2023-04-06T08:29:22;3.43;;;2.30;;
16288;SDS011;26089;43.538;5.250;2023-04-06T08:31:49;2.97;;;2.50;;
16288;SDS011;26089;43.538;5.250;2023-04-06T08:34:18;3.67;;;2.73;;
16288;SDS011;26089;43.538;5.250;2023-04-06T08:36:45;3.10;;;2.20;;
16288;SDS011;26089;43.538;5.250;2023-04-06T08:39:12;3.90;;;2.40;;
16288;SDS011;26089;43.538;5.250;2023-04-06T08:41:41;3.93;;;2.10;;
16288;SDS011;26089;43.538;5.250;2023-04-06T08:44:09;2.27;;;2.13;;
16288;SDS011;26089;43.538;5.250;2023-04-06T08:46:36;3.87;;;2.30;;
16288;SDS011;26089;43.538;5.250;2023-04-06T08:49:03;5.47;;;2.40;;
16288;SDS011;26089;43.538;5.250;2023-04-06T08:51:34;4.43;;;2.10;;
16288;SDS011;26089;43.538;5.250;2023-04-06T08:54:03;4.67;;;2.07;;
16288;SDS011;26089;43.538;5.250;2023-04-06T08:56:30;5.40;;;2.50;;
16288;SDS011;26089;43.538;5.250;2023-04-06T08:58:58;4.53;;;2.67;;
16288;SDS011;26089;43.538;5.250;2023-04-06T09:01:26;5.67;;;2.57;;
16288;SDS011;26089;43.538;5.250;2023-04-06T09:03:55;4.20;;;2.30;;
16288;SDS011;26089;43.538;5.250;2023-04-06T09:06:24;4.43;;;2.37;;
16288;SDS011;26089;43.538;5.250;2023-04-06T09:08:54;2.30;;;2.10;;
16288;SDS011;26089;43.538;5.250;2023-04-06T09:11:21;3.80;;;2.40;;
16288;SDS011;26089;43.538;5.250;2023-04-06T09:13:49;5.17;;;2.60;;
16288;SDS011;26089;43.538;5.250;2023-04-06T09:16:18;4.40;;;2.80;;
16288;SDS011;26089;43.538;5.250;2023-04-06T09:18:46;5.53;;;2.40;;
16288;SDS011;26089;43.538;5.250;2023-04-06T09:21:16;4.77;;;2.57;;
16288;SDS011;26089;43.538;5.250;2023-04-06T09:23:44;3.83;;;2.47;;
16288;SDS011;26089;43.538;5.250;2023-04-06T09:26:12;4.77;;;2.50;;
16288;SDS011;26089;43.538;5.250;2023-04-06T09:28:41;3.70;;;2.10;;
16288;SDS011;26089;43.538;5.250;2023-04-06T09:31:12;2.33;;;2.13;;
16288;SDS011;26089;43.538;5.250;2023-04-06T09:33:40;3.87;;;2.33;;
16288;SDS011;26089;43.538;5.250;2023-04-06T09:36:08;3.93;;;2.50;;
16288;SDS011;26089;43.538;5.250;2023-04-06T09:38:39;2.60;;;2.30;;
16288;SDS011;26089;43.538;5.250;2023-04-06T09:41:24;5.10;;;2.40;;
16288;SDS011;26089;43.538;5.250;2023-04-06T09:43:52;2.50;;;2.40;;
16288;SDS011;26089;43.538;5.250;2023-04-06T09:46:29;3.67;;;2.07;;
16288;SDS011;26089;43.538;5.250;2023-04-06T09:48:58;4.27;;;2.40;;
16288;SDS011;26089;43.538;5.250;2023-04-06T09:51:26;3.70;;;2.33;;
16288;SDS011;26089;43.538;5.250;2023-04-06T09:53:57;4.77;;;3.17;;
16288;SDS011;26089;43.538;5.250;2023-04-06T09:56:30;7.10;;;4.00;;
16288;SDS011;26089;43.538;5.250;2023-04-06T09:59:01;5.33;;;3.17;;
16288;SDS011;26089;43.538;5.250;2023-04-06T10:01:31;5.27;;;3.57;;
16288;SDS011;26089;43.538;5.250;2023-04-06T10:04:02;6.27;;;3.90;;
16288;SDS011;26089;43.538;5.250;2023-04-06T10:06:37;3.07;;;2.83;;
16288;SDS011;26089;43.538;5.250;2023-04-06T10:09:05;3.37;;;3.07;;
16288;SDS011;26089;43.538;5.250;2023-04-06T10:11:35;4.50;;;2.93;;
16288;SDS011;26089;43.538;5.250;2023-04-06T10:14:03;2.77;;;2.57;;
16288;SDS011;26089;43.538;5.250;2023-04-06T10:16:30;3.50;;;2.77;;
16288;SDS011;26089;43.538;5.250;2023-04-06T10:18:59;2.90;;;2.60;;
16288;SDS011;26089;43.538;5.250;2023-04-06T10:21:32;3.20;;;2.60;;
16288;SDS011;26089;43.538;5.250;2023-04-06T10:24:01;2.93;;;2.73;;
16288;SDS011;26089;43.538;5.250;2023-04-06T10:26:36;4.33;;;2.90;;
16288;SDS011;26089;43.538;5.250;2023-04-06T10:29:03;4.43;;;3.37;;
16288;SDS011;26089;43.538;5.250;2023-04-06T10:31:31;2.97;;;2.63;;
16288;SDS011;26089;43.538;5.250;2023-04-06T10:33:59;3.33;;;3.03;;
16288;SDS011;26089;43.538;5.250;2023-04-06T10:36:27;4.77;;;2.77;;
16288;SDS011;26089;43.538;5.250;2023-04-06T10:38:55;3.60;;;2.90;;
16288;SDS011;26089;43.538;5.250;2023-04-06T10:41:24;3.60;;;2.90;;
16288;SDS011;26089;43.538;5.250;2023-04-06T10:44:00;5.00;;;2.87;;
16288;SDS011;26089;43.538;5.250;2023-04-06T10:46:28;4.30;;;2.67;;
16288;SDS011;26089;43.538;5.250;2023-04-06T10:48:56;4.73;;;2.70;;
16288;SDS011;26089;43.538;5.250;2023-04-06T10:51:27;4.23;;;2.60;;
16288;SDS011;26089;43.538;5.250;2023-04-06T10:53:55;4.27;;;2.80;;
16288;SDS011;26089;43.538;5.250;2023-04-06T10:56:24;4.97;;;3.10;;
16288;SDS011;26089;43.538;5.250;2023-04-06T10:58:53;3.67;;;2.40;;
16288;SDS011;26089;43.538;5.250;2023-04-06T11:01:23;3.87;;;3.07;;
16288;SDS011;26089;43.538;5.250;2023-04-06T11:03:53;4.47;;;2.70;;
16288;SDS011;26089;43.538;5.250;2023-04-06T11:06:21;3.30;;;3.00;;
16288;SDS011;26089;43.538;5.250;2023-04-06T11:08:49;4.77;;;2.53;;
16288;SDS011;26089;43.538;5.250;2023-04-06T11:11:17;4.63;;;3.30;;
16288;SDS011;26089;43.538;5.250;2023-04-06T11:13:46;5.03;;;3.10;;
16288;SDS011;26089;43.538;5.250;2023-04-06T11:16:15;5.13;;;3.57;;
16288;SDS011;26089;43.538;5.250;2023-04-06T11:18:48;5.10;;;3.20;;
16288;SDS011;26089;43.538;5.250;2023-04-06T11:21:16;3.50;;;2.57;;
16288;SDS011;26089;43.538;5.250;2023-04-06T11:23:43;4.87;;;2.60;;
16288;SDS011;26089;43.538;5.250;2023-04-06T11:26:11;3.90;;;2.50;;
16288;SDS011;26089;43.538;5.250;2023-04-06T11:28:39;4.23;;;2.77;;
16288;SDS011;26089;43.538;5.250;2023-04-06T11:31:07;2.60;;;2.40;;
16288;SDS011;26089;43.538;5.250;2023-04-06T11:33:35;2.70;;;2.17;;
16288;SDS011;26089;43.538;5.250;2023-04-06T11:36:05;2.80;;;2.17;;
16288;SDS011;26089;43.538;5.250;2023-04-06T11:38:33;2.50;;;2.20;;
16288;SDS011;26089;43.538;5.250;2023-04-06T11:41:00;2.67;;;2.10;;
16288;SDS011;26089;43.538;5.250;2023-04-06T11:43:29;2.07;;;1.97;;
16288;SDS011;26089;43.538;5.250;2023-04-06T11:45:59;4.97;;;2.27;;
16288;SDS011;26089;43.538;5.250;2023-04-06T11:48:28;4.03;;;2.17;;
16288;SDS011;26089;43.538;5.250;2023-04-06T11:50:56;3.17;;;2.40;;
16288;SDS011;26089;43.538;5.250;2023-04-06T11:53:27;2.50;;;2.00;;
16288;SDS011;26089;43.538;5.250;2023-04-06T11:55:54;2.60;;;2.20;;
16288;SDS011;26089;43.538;5.250;2023-04-06T11:58:21;2.90;;;2.43;;
16288;SDS011;26089;43.538;5.250;2023-04-06T12:00:48;2.57;;;2.37;;
16288;SDS011;26089;43.538;5.250;2023-04-06T12:03:15;2.50;;;2.30;;
16288;SDS011;26089;43.538;5.250;2023-04-06T12:05:43;3.73;;;2.97;;
16288;SDS011;26089;43.538;5.250;2023-04-06T12:08:10;3.07;;;2.30;;
16288;SDS011;26089;43.538;5.250;2023-04-06T12:10:39;3.07;;;2.10;;
16288;SDS011;26089;43.538;5.250;2023-04-06T12:13:06;2.90;;;2.47;;
16288;SDS011;26089;43.538;5.250;2023-04-06T12:15:33;3.80;;;2.57;;
16288;SDS011;26089;43.538;5.250;2023-04-06T12:18:00;5.53;;;2.60;;
16288;SDS011;26089;43.538;5.250;2023-04-06T12:20:27;4.47;;;3.10;;
16288;SDS011;26089;43.538;5.250;2023-04-06T12:22:54;3.47;;;2.40;;
16288;SDS011;26089;43.538;5.250;2023-04-06T12:25:21;2.80;;;2.53;;
16288;SDS011;26089;43.538;5.250;2023-04-06T12:27:50;2.93;;;2.63;;
16288;SDS011;26089;43.538;5.250;2023-04-06T12:30:17;4.37;;;2.53;;
16288;SDS011;26089;43.538;5.250;2023-04-06T12:32:44;2.93;;;2.50;;
16288;SDS011;26089;43.538;5.250;2023-04-06T12:35:11;3.07;;;2.43;;
16288;SDS011;26089;43.538;5.250;2023-04-06T12:37:40;3.23;;;2.93;;
16288;SDS011;26089;43.538;5.250;2023-04-06T12:40:08;3.17;;;2.87;;
16288;SDS011;26089;43.538;5.250;2023-04-06T12:42:38;3.20;;;2.70;;
16288;SDS011;26089;43.538;5.250;2023-04-06T12:45:08;6.13;;;3.07;;
16288;SDS011;26089;43.538;5.250;2023-04-06T12:47:36;4.40;;;3.10;;
16288;SDS011;26089;43.538;5.250;2023-04-06T12:50:03;3.60;;;2.90;;
16288;SDS011;26089;43.538;5.250;2023-04-06T12:52:31;8.67;;;3.50;;
16288;SDS011;26089;43.538;5.250;2023-04-06T12:55:00;4.30;;;3.03;;
16288;SDS011;26089;43.538;5.250;2023-04-06T12:57:27;3.87;;;3.30;;
16288;SDS011;26089;43.538;5.250;2023-04-06T12:59:54;4.17;;;3.10;;
16288;SDS011;26089;43.538;5.250;2023-04-06T13:02:23;5.90;;;3.13;;
16288;SDS011;26089;43.538;5.250;2023-04-06T13:04:51;4.47;;;3.50;;
16288;SDS011;26089;43.538;5.250;2023-04-06T13:07:18;4.00;;;3.27;;
16288;SDS011;26089;43.538;5.250;2023-04-06T13:09:45;4.40;;;4.00;;
16288;SDS011;26089;43.538;5.250;2023-04-06T13:12:14;4.23;;;3.73;;
16288;SDS011;26089;43.538;5.250;2023-04-06T13:14:41;4.73;;;3.40;;
16288;SDS011;26089;43.538;5.250;2023-04-06T13:17:08;6.77;;;3.30;;
16288;SDS011;26089;43.538;5.250;2023-04-06T13:19:37;4.60;;;3.37;;
16288;SDS011;26089;43.538;5.250;2023-04-06T13:22:04;6.10;;;3.33;;
16288;SDS011;26089;43.538;5.250;2023-04-06T13:24:31;4.00;;;3.40;;
16288;SDS011;26089;43.538;5.250;2023-04-06T13:26:59;5.03;;;3.50;;
16288;SDS011;26089;43.538;5.250;2023-04-06T13:29:27;4.40;;;3.63;;
16288;SDS011;26089;43.538;5.250;2023-04-06T13:31:54;3.43;;;2.90;;
16288;SDS011;26089;43.538;5.250;2023-04-06T13:34:21;4.50;;;3.63;;
16288;SDS011;26089;43.538;5.250;2023-04-06T13:36:50;5.73;;;3.97;;
16288;SDS011;26089;43.538;5.250;2023-04-06T13:39:17;5.37;;;3.60;;
16288;SDS011;26089;43.538;5.250;2023-04-06T13:41:44;3.97;;;3.57;;
16288;SDS011;26089;43.538;5.250;2023-04-06T13:44:11;4.83;;;3.37;;
16288;SDS011;26089;43.538;5.250;2023-04-06T13:46:38;5.37;;;2.87;;
16288;SDS011;26089;43.538;5.250;2023-04-06T13:49:05;6.53;;;3.17;;
16288;SDS011;26089;43.538;5.250;2023-04-06T13:51:32;5.03;;;3.43;;
16288;SDS011;26089;43.538;5.250;2023-04-06T13:54:00;4.67;;;3.50;;
16288;SDS011;26089;43.538;5.250;2023-04-06T13:56:27;4.63;;;2.70;;
16288;SDS011;26089;43.538;5.250;2023-04-06T13:58:55;5.77;;;3.20;;
16288;SDS011;26089;43.538;5.250;2023-04-06T14:01:22;6.50;;;2.60;;
16288;SDS011;26089;43.538;5.250;2023-04-06T14:03:51;3.23;;;2.90;;
16288;SDS011;26089;43.538;5.250;2023-04-06T14:06:18;3.87;;;2.90;;
16288;SDS011;26089;43.538;5.250;2023-04-06T14:08:45;5.63;;;3.00;;
16288;SDS011;26089;43.538;5.250;2023-04-06T14:11:13;6.30;;;2.93;;
16288;SDS011;26089;43.538;5.250;2023-04-06T14:13:41;6.60;;;4.33;;
16288;SDS011;26089;43.538;5.250;2023-04-06T14:16:08;5.63;;;3.77;;
16288;SDS011;26089;43.538;5.250;2023-04-06T14:18:36;8.07;;;3.27;;
16288;SDS011;26089;43.538;5.250;2023-04-06T14:21:03;6.53;;;3.20;;
16288;SDS011;26089;43.538;5.250;2023-04-06T14:23:30;6.57;;;4.40;;
16288;SDS011;26089;43.538;5.250;2023-04-06T14:26:01;4.27;;;3.33;;
16288;SDS011;26089;43.538;5.250;2023-04-06T14:28:30;6.67;;;3.50;;
16288;SDS011;26089;43.538;5.250;2023-04-06T14:30:58;6.10;;;3.47;;
16288;SDS011;26089;43.538;5.250;2023-04-06T14:33:25;5.73;;;3.20;;
16288;SDS011;26089;43.538;5.250;2023-04-06T14:35:52;5.10;;;3.40;;
16288;SDS011;26089;43.538;5.250;2023-04-06T14:38:20;4.87;;;3.03;;
16288;SDS011;26089;43.538;5.250;2023-04-06T14:40:47;5.90;;;3.37;;
16288;SDS011;26089;43.538;5.250;2023-04-06T14:43:13;6.17;;;3.40;;
16288;SDS011;26089;43.538;5.250;2023-04-06T14:45:42;9.73;;;4.33;;
16288;SDS011;26089;43.538;5.250;2023-04-06T14:48:09;6.67;;;4.13;;
16288;SDS011;26089;43.538;5.250;2023-04-06T14:50:37;3.33;;;2.90;;